sensor_id;sensor_type;location;lat;lon;timestamp;pressure;altitude;pressure_sealevel;temperature;humidity
55858;BME280;41779;52.360;31.026;2022-08-19T00:02:55;1024.2;;;26;45.5
55858;BME280;41779;52.360;31.026;2022-08-19T00:08:25;1024.3;;;26;45.5
55858;BME280;41779;52.360;31.026;2022-08-19T00:13:27;1024.3;;;26;45.4
55858;BME280;41779;52.360;31.026;2022-08-19T00:18:35;1024.3;;;26.1;45.3
55858;BME280;41779;52.360;31.026;2022-08-19T00:23:27;1024.3;;;26;45.4
55858;BME280;41779;52.360;31.026;2022-08-19T00:28:27;1024.3;;;26;45.4
55858;BME280;41779;52.360;31.026;2022-08-19T00:32:55;1024.3;;;25.9;45.7
55858;BME280;41779;52.360;31.026;2022-08-19T00:37:55;1024.4;;;25.6;46.2
55858;BME280;41779;52.360;31.026;2022-08-19T00:43:17;1024.4;;;25.5;46.5
55858;BME280;41779;52.360;31.026;2022-08-19T00:48:21;1024.5;;;25.5;46.6
55858;BME280;41779;52.360;31.026;2022-08-19T00:53:33;1024.5;;;25.6;46.5
55858;BME280;41779;52.360;31.026;2022-08-19T00:58:14;1024.6;;;25.6;46.3
55858;BME280;41779;52.360;31.026;2022-08-19T01:03:23;1024.6;;;25.7;46.3
55858;BME280;41779;52.360;31.026;2022-08-19T01:08:21;1024.6;;;25.7;46.2
55858;BME280;41779;52.360;31.026;2022-08-19T01:12:55;1024.6;;;25.7;46.1
55858;BME280;41779;52.360;31.026;2022-08-19T01:17:55;1024.6;;;25.6;46.1
55858;BME280;41779;52.360;31.026;2022-08-19T01:23:13;1024.6;;;25.6;46.2
55858;BME280;41779;52.360;31.026;2022-08-19T01:27:55;1024.6;;;25.4;46.3
55858;BME280;41779;52.360;31.026;2022-08-19T01:33:03;1024.7;;;25.1;47.1
55858;BME280;41779;52.360;31.026;2022-08-19T01:38:23;1024.7;;;25;47.5
55858;BME280;41779;52.360;31.026;2022-08-19T01:43:33;1024.6;;;24.9;47.7
55858;BME280;41779;52.360;31.026;2022-08-19T01:48:38;1024.6;;;25;47.5
55858;BME280;41779;52.360;31.026;2022-08-19T01:53:15;1024.6;;;25.2;47.1
55858;BME280;41779;52.360;31.026;2022-08-19T01:57:58;1024.6;;;25.1;47.2
55858;BME280;41779;52.360;31.026;2022-08-19T02:03:33;1024.6;;;25.1;47.2
55858;BME280;41779;52.360;31.026;2022-08-19T02:08:34;1024.7;;;25.2;47
55858;BME280;41779;52.360;31.026;2022-08-19T02:13:07;1024.6;;;25.2;46.9
55858;BME280;41779;52.360;31.026;2022-08-19T02:18:09;1024.6;;;25.3;46.7
55858;BME280;41779;52.360;31.026;2022-08-19T02:22:55;1024.6;;;25.3;46.6
55858;BME280;41779;52.360;31.026;2022-08-19T02:28:31;1024.7;;;25.4;46.5
55858;BME280;41779;52.360;31.026;2022-08-19T02:33:17;1024.7;;;25.4;46.4
55858;BME280;41779;52.360;31.026;2022-08-19T02:38:17;1024.7;;;25.4;46.3
55858;BME280;41779;52.360;31.026;2022-08-19T02:43:25;1024.6;;;25.5;46.1
55858;BME280;41779;52.360;31.026;2022-08-19T02:48:35;1024.6;;;25.5;46
55858;BME280;41779;52.360;31.026;2022-08-19T02:53:26;1024.7;;;25.4;46.3
55858;BME280;41779;52.360;31.026;2022-08-19T02:58:35;1024.7;;;25.4;46.2
55858;BME280;41779;52.360;31.026;2022-08-19T03:02:55;1024.6;;;25.5;46.1
55858;BME280;41779;52.360;31.026;2022-08-19T03:08:19;1024.6;;;25.4;46.1
55858;BME280;41779;52.360;31.026;2022-08-19T03:13:16;1024.7;;;25.4;46.2
55858;BME280;41779;52.360;31.026;2022-08-19T03:18:15;1024.8;;;25.3;46.4
55858;BME280;41779;52.360;31.026;2022-08-19T03:23:37;1024.8;;;25.1;46.6
55858;BME280;41779;52.360;31.026;2022-08-19T03:28:14;1024.8;;;25.1;46.7
55858;BME280;41779;52.360;31.026;2022-08-19T03:33:21;1024.8;;;25.1;46.8
55858;BME280;41779;52.360;31.026;2022-08-19T03:38:23;1024.9;;;25.2;46.8
55858;BME280;41779;52.360;31.026;2022-08-19T03:43:19;1024.9;;;25.1;46.9
55858;BME280;41779;52.360;31.026;2022-08-19T03:48:19;1024.9;;;25.1;47
55858;BME280;41779;52.360;31.026;2022-08-19T03:52:55;1025;;;25.1;47.5
55858;BME280;41779;52.360;31.026;2022-08-19T03:57:55;1025;;;25.1;47.5
